Time;durP1;ratioP1;P1;durP2;ratioP2;P2;SDS_P1;SDS_P2;PMS_P1;PMS_P2;Temp;Humidity;BMP_temperature;BMP_pressure;BME280_temperature;BME280_humidity;BME280_pressure;Samples;Min_cycle;Max_cycle;Signal;HPM_P1;HPM_P2
2021/08/03 00:02:09;;;;;;;10.70;4.93;;;13.90;99.90;;;;;;5049773;28;20455;-82
2021/08/03 00:04:40;;;;;;;10.60;4.70;;;13.90;99.90;;;;;;5050273;28;20527;-82
2021/08/03 00:07:10;;;;;;;10.50;5.20;;;13.90;99.90;;;;;;5050346;28;20503;-82
2021/08/03 00:09:38;;;;;;;12.57;4.97;;;13.90;99.90;;;;;;5041797;28;20447;-82
2021/08/03 00:12:07;;;;;;;12.23;5.07;;;13.80;99.90;;;;;;5030231;28;20518;-83
2021/08/03 00:14:34;;;;;;;11.83;4.80;;;13.80;99.90;;;;;;5030305;28;20432;-82
2021/08/03 00:17:03;;;;;;;12.17;5.50;;;13.80;99.90;;;;;;5030047;28;20467;-81
2021/08/03 00:19:30;;;;;;;12.17;5.30;;;13.80;99.90;;;;;;5035383;28;20483;-81
2021/08/03 00:21:57;;;;;;;9.77;4.27;;;13.80;99.90;;;;;;5040515;28;20473;-81
2021/08/03 00:24:24;;;;;;;10.43;5.40;;;13.80;99.90;;;;;;5034463;28;20455;-82
2021/08/03 00:26:52;;;;;;;15.33;5.70;;;13.80;99.90;;;;;;5029343;28;20487;-82
2021/08/03 00:29:19;;;;;;;11.90;5.40;;;13.80;99.90;;;;;;5029278;28;20517;-82
2021/08/03 00:31:46;;;;;;;11.90;6.57;;;13.70;99.90;;;;;;5029050;28;20910;-82
2021/08/03 00:34:14;;;;;;;10.70;5.37;;;13.70;99.90;;;;;;5029457;28;20508;-81
2021/08/03 00:36:42;;;;;;;11.87;5.70;;;13.70;99.90;;;;;;5028801;28;20492;-81
2021/08/03 00:39:09;;;;;;;11.90;5.10;;;13.70;99.90;;;;;;5030985;28;20484;-81
2021/08/03 00:41:39;;;;;;;15.47;5.40;;;13.70;99.90;;;;;;5034552;28;20450;-81
2021/08/03 00:44:07;;;;;;;13.10;5.70;;;13.70;99.90;;;;;;5032632;28;20444;-81
2021/08/03 00:46:33;;;;;;;11.83;5.20;;;13.70;99.90;;;;;;5034867;28;20498;-81
2021/08/03 00:49:00;;;;;;;12.40;6.50;;;13.70;99.90;;;;;;5033271;28;20493;-82
2021/08/03 00:51:28;;;;;;;10.93;5.27;;;13.70;99.90;;;;;;5036701;28;20494;-81
2021/08/03 00:53:55;;;;;;;11.70;5.50;;;13.60;99.90;;;;;;5037824;28;20451;-82
2021/08/03 00:56:22;;;;;;;10.70;5.67;;;13.60;99.90;;;;;;5033567;28;20516;-82
2021/08/03 00:58:49;;;;;;;9.80;5.10;;;13.60;99.90;;;;;;5026465;28;20489;-81
2021/08/03 01:01:16;;;;;;;10.90;5.60;;;13.60;99.90;;;;;;5026828;28;20452;-82
2021/08/03 01:03:43;;;;;;;12.77;5.40;;;13.60;99.90;;;;;;5026535;28;20884;-82
2021/08/03 01:06:14;;;;;;;16.10;5.80;;;13.60;99.90;;;;;;5027602;28;20548;-82
2021/08/03 01:09:01;;;;;;;14.67;5.93;;;13.60;99.90;;;;;;5026868;28;20464;-81
2021/08/03 01:11:40;;;;;;;10.67;5.20;;;13.60;99.90;;;;;;5023973;28;20454;-81
2021/08/03 01:14:15;;;;;;;12.83;6.90;;;13.60;99.90;;;;;;5029603;28;20444;-81
2021/08/03 01:16:49;;;;;;;12.70;5.50;;;13.50;99.90;;;;;;5030600;28;20536;-81
2021/08/03 01:19:22;;;;;;;12.70;6.47;;;13.50;99.90;;;;;;5030452;28;20488;-82
2021/08/03 01:21:51;;;;;;;12.20;5.67;;;13.50;99.90;;;;;;5046819;28;20517;-81
2021/08/03 01:24:50;;;;;;;12.23;6.27;;;13.50;99.90;;;;;;5031069;28;20522;-81
2021/08/03 01:27:32;;;;;;;13.27;6.70;;;13.50;99.90;;;;;;5029619;28;20473;-82
2021/08/03 01:30:01;;;;;;;13.40;6.07;;;13.40;99.90;;;;;;5030279;28;20512;-81
2021/08/03 01:32:31;;;;;;;13.13;7.30;;;13.50;99.90;;;;;;5031131;28;20524;-81
2021/08/03 01:35:00;;;;;;;11.97;6.73;;;13.50;99.90;;;;;;5041882;28;20449;-81
2021/08/03 01:37:31;;;;;;;12.10;6.33;;;13.50;99.90;;;;;;5049788;28;20466;-82
2021/08/03 01:40:02;;;;;;;12.10;6.30;;;13.50;99.90;;;;;;5049356;28;20493;-82
2021/08/03 01:42:30;;;;;;;12.20;6.10;;;13.50;99.90;;;;;;5051184;28;20512;-81
2021/08/03 01:44:59;;;;;;;14.27;6.43;;;13.50;99.90;;;;;;5049446;28;20442;-81
2021/08/03 01:47:29;;;;;;;12.07;6.93;;;13.50;99.90;;;;;;5045226;28;20990;-83
2021/08/03 01:49:57;;;;;;;12.00;6.30;;;13.50;99.90;;;;;;5031778;28;20458;-82
2021/08/03 01:52:24;;;;;;;12.07;6.73;;;13.50;99.90;;;;;;5031259;28;20555;-83
2021/08/03 01:54:52;;;;;;;12.57;6.50;;;13.50;99.90;;;;;;5031747;28;20524;-82
2021/08/03 01:57:20;;;;;;;14.80;7.57;;;13.40;99.90;;;;;;5032034;28;20501;-83
2021/08/03 01:59:47;;;;;;;15.13;6.43;;;13.40;99.90;;;;;;5032027;28;20493;-83
2021/08/03 02:02:17;;;;;;;12.30;6.47;;;13.40;99.90;;;;;;5033490;28;20481;-83
2021/08/03 02:04:46;;;;;;;11.60;6.53;;;13.40;99.90;;;;;;5049143;28;20463;-83
2021/08/03 02:07:15;;;;;;;11.53;6.20;;;13.40;99.90;;;;;;5033845;28;20469;-83
2021/08/03 02:09:43;;;;;;;14.53;6.80;;;13.40;99.90;;;;;;5032196;28;20461;-83
2021/08/03 02:12:10;;;;;;;13.70;6.73;;;13.40;99.90;;;;;;5032841;28;20522;-83
2021/08/03 02:14:40;;;;;;;14.53;6.70;;;13.40;99.90;;;;;;5032522;28;20459;-83
2021/08/03 02:17:07;;;;;;;11.77;6.07;;;13.40;99.90;;;;;;5039593;28;20494;-83
2021/08/03 02:19:35;;;;;;;12.23;6.47;;;13.40;99.90;;;;;;5051647;28;20490;-83
2021/08/03 02:22:04;;;;;;;11.70;6.30;;;13.30;99.90;;;;;;5050792;28;20556;-83
2021/08/03 02:24:30;;;;;;;13.10;7.00;;;13.40;99.90;;;;;;5051754;28;20478;-82
2021/08/03 02:26:57;;;;;;;18.27;8.40;;;13.30;99.90;;;;;;5051713;28;20468;-82
2021/08/03 02:29:24;;;;;;;12.93;6.57;;;13.40;99.90;;;;;;5051211;28;20458;-82
2021/08/03 02:31:59;;;;;;;13.13;6.97;;;13.30;99.90;;;;;;5038325;28;20453;-83
2021/08/03 02:34:29;;;;;;;14.13;5.70;;;13.30;99.90;;;;;;5031365;28;20484;-82
2021/08/03 02:37:00;;;;;;;13.13;6.63;;;13.30;99.90;;;;;;5031399;28;20525;-82
2021/08/03 02:39:29;;;;;;;13.23;6.67;;;13.30;99.90;;;;;;5031452;28;20499;-83
2021/08/03 02:41:57;;;;;;;12.10;6.50;;;13.30;99.90;;;;;;5031930;28;20524;-82
2021/08/03 02:44:25;;;;;;;12.57;6.83;;;13.30;99.90;;;;;;5031911;28;20488;-83
2021/08/03 02:46:54;;;;;;;13.20;6.50;;;13.30;99.90;;;;;;5051018;28;20554;-83
2021/08/03 02:49:34;;;;;;;14.23;6.57;;;13.30;99.90;;;;;;5051033;28;20547;-82
2021/08/03 02:52:03;;;;;;;11.80;5.93;;;13.30;99.90;;;;;;5051363;28;20466;-83
2021/08/03 02:54:36;;;;;;;12.47;6.30;;;13.30;99.90;;;;;;5052006;28;20514;-83
2021/08/03 02:57:07;;;;;;;12.20;6.63;;;13.40;99.90;;;;;;5051962;28;20475;-82
2021/08/03 02:59:39;;;;;;;14.60;6.60;;;13.40;99.90;;;;;;5050460;28;20560;-83
2021/08/03 03:02:09;;;;;;;13.57;7.73;;;13.40;99.90;;;;;;5042315;28;20552;-83
2021/08/03 03:04:40;;;;;;;15.17;6.50;;;13.40;99.90;;;;;;5030844;28;20451;-82
2021/08/03 03:07:12;;;;;;;12.27;6.43;;;13.40;99.90;;;;;;5032194;28;20560;-83
2021/08/03 03:09:43;;;;;;;14.23;6.67;;;13.40;99.90;;;;;;5031073;28;20509;-83
2021/08/03 03:12:11;;;;;;;18.07;6.43;;;13.40;99.90;;;;;;5031758;28;20452;-82
2021/08/03 03:14:41;;;;;;;14.03;7.30;;;13.40;99.90;;;;;;5032180;28;20452;-82
2021/08/03 03:17:10;;;;;;;13.33;5.93;;;13.50;99.90;;;;;;5032451;28;20483;-82
2021/08/03 03:19:38;;;;;;;11.77;6.23;;;13.40;99.90;;;;;;5045969;28;20486;-82
2021/08/03 03:22:07;;;;;;;15.70;7.77;;;13.50;99.90;;;;;;5051301;28;20454;-82
2021/08/03 03:24:36;;;;;;;10.90;6.47;;;13.50;99.90;;;;;;5052343;28;20450;-82
2021/08/03 03:27:05;;;;;;;11.37;6.53;;;13.50;99.90;;;;;;5051829;28;20474;-84
2021/08/03 03:29:35;;;;;;;13.10;7.00;;;13.60;99.90;;;;;;5051577;28;21036;-83
2021/08/03 03:32:03;;;;;;;13.73;7.10;;;13.60;99.90;;;;;;5051633;28;20664;-82
2021/08/03 03:34:32;;;;;;;13.60;7.53;;;13.60;99.90;;;;;;5053600;28;20458;-83
2021/08/03 03:37:00;;;;;;;12.80;7.00;;;13.60;99.90;;;;;;5037508;28;20484;-82
2021/08/03 03:39:28;;;;;;;13.80;8.63;;;13.60;99.90;;;;;;5037372;28;20496;-82
2021/08/03 03:42:01;;;;;;;14.77;6.20;;;13.60;99.90;;;;;;5033546;28;20525;-82
2021/08/03 03:44:30;;;;;;;12.70;6.83;;;13.70;99.90;;;;;;5030096;28;20981;-83
2021/08/03 03:46:59;;;;;;;13.67;6.70;;;13.70;99.90;;;;;;5028915;28;20482;-83
2021/08/03 03:49:31;;;;;;;13.37;7.00;;;13.70;99.90;;;;;;5028184;28;20453;-82
2021/08/03 03:52:00;;;;;;;12.17;6.70;;;13.80;99.90;;;;;;5029616;28;20463;-83
2021/08/03 03:54:31;;;;;;;13.20;7.03;;;13.80;99.90;;;;;;5028872;28;20459;-82
2021/08/03 03:57:04;;;;;;;12.90;7.03;;;13.80;99.90;;;;;;5028616;28;20560;-83
2021/08/03 03:59:32;;;;;;;12.20;6.83;;;13.80;99.90;;;;;;5029613;28;20492;-82
2021/08/03 04:02:04;;;;;;;12.37;6.20;;;13.90;99.90;;;;;;5030908;28;20449;-83
2021/08/03 04:04:33;;;;;;;12.60;6.63;;;13.90;99.90;;;;;;5030041;28;20907;-83
2021/08/03 04:07:00;;;;;;;13.23;6.80;;;13.90;99.90;;;;;;5030885;28;20477;-83
2021/08/03 04:09:27;;;;;;;12.27;6.73;;;13.90;99.90;;;;;;5027027;28;20446;-83
2021/08/03 04:11:54;;;;;;;11.47;6.57;;;13.90;99.90;;;;;;5023171;28;20671;-83
2021/08/03 04:14:24;;;;;;;13.33;6.90;;;14.00;99.90;;;;;;5023160;28;20521;-83
2021/08/03 04:16:53;;;;;;;12.00;6.93;;;14.00;99.90;;;;;;5022964;28;20465;-83
2021/08/03 04:19:20;;;;;;;10.77;6.47;;;14.00;99.90;;;;;;5022691;28;20588;-82
2021/08/03 04:21:47;;;;;;;11.37;6.50;;;14.00;99.90;;;;;;5022683;28;20453;-82
2021/08/03 04:24:14;;;;;;;11.50;5.90;;;14.10;99.90;;;;;;5032426;28;20453;-82
2021/08/03 04:26:41;;;;;;;11.27;6.50;;;14.10;99.90;;;;;;5032109;28;20473;-84
2021/08/03 04:29:09;;;;;;;11.67;6.80;;;14.20;99.90;;;;;;5025504;28;20459;-83
2021/08/03 04:31:36;;;;;;;11.30;6.17;;;14.20;99.90;;;;;;5023767;28;20449;-83
2021/08/03 04:34:05;;;;;;;12.80;7.00;;;14.20;99.90;;;;;;5024366;28;20566;-83
2021/08/03 04:36:31;;;;;;;11.67;5.60;;;14.30;99.90;;;;;;5022743;28;20479;-82
2021/08/03 04:38:58;;;;;;;10.23;5.53;;;14.30;99.90;;;;;;5023684;28;20486;-84
2021/08/03 04:41:25;;;;;;;13.87;5.90;;;14.30;99.90;;;;;;5026298;28;20463;-84
2021/08/03 04:43:52;;;;;;;12.97;6.80;;;14.30;99.90;;;;;;5047352;28;20444;-84
2021/08/03 04:46:19;;;;;;;11.73;6.53;;;14.40;99.90;;;;;;5050660;28;20547;-82
2021/08/03 04:48:45;;;;;;;13.13;6.90;;;14.40;99.90;;;;;;5051415;28;20523;-84
2021/08/03 04:51:14;;;;;;;11.60;7.20;;;14.40;99.90;;;;;;5051616;28;20535;-85
2021/08/03 04:53:41;;;;;;;14.57;6.80;;;14.40;99.90;;;;;;5051460;28;20539;-83
2021/08/03 04:56:08;;;;;;;15.03;7.87;;;14.40;99.90;;;;;;5052191;28;20548;-83
2021/08/03 04:58:38;;;;;;;12.70;7.77;;;14.40;99.90;;;;;;5052080;28;20537;-83
2021/08/03 05:01:05;;;;;;;14.33;7.30;;;14.50;99.90;;;;;;5036092;28;20465;-83
2021/08/03 05:03:32;;;;;;;12.33;6.20;;;14.50;99.90;;;;;;5032139;28;20680;-83
2021/08/03 05:05:59;;;;;;;16.40;6.83;;;14.50;99.90;;;;;;5032429;28;20460;-85
2021/08/03 05:08:27;;;;;;;15.50;7.47;;;14.50;99.90;;;;;;5030585;28;20470;-84
2021/08/03 05:10:54;;;;;;;13.07;7.03;;;14.50;99.90;;;;;;5033728;28;20515;-85
2021/08/03 05:13:21;;;;;;;10.90;7.27;;;14.60;99.90;;;;;;5031198;28;20463;-83
2021/08/03 05:15:48;;;;;;;14.70;6.80;;;14.60;99.90;;;;;;5032794;28;20454;-85
2021/08/03 05:18:16;;;;;;;13.93;7.30;;;14.60;99.90;;;;;;5032149;28;20487;-84
2021/08/03 05:20:44;;;;;;;12.10;7.80;;;14.60;99.90;;;;;;5046369;28;20481;-83
2021/08/03 05:23:11;;;;;;;13.83;7.80;;;14.60;99.90;;;;;;5051427;28;20511;-83
2021/08/03 05:25:39;;;;;;;11.03;6.50;;;14.60;99.90;;;;;;5051742;28;20496;-85
2021/08/03 05:28:08;;;;;;;15.23;7.60;;;14.60;99.90;;;;;;5049415;28;20530;-85
2021/08/03 05:30:35;;;;;;;12.83;7.60;;;14.70;99.90;;;;;;5050530;28;20487;-84
2021/08/03 05:33:02;;;;;;;12.40;7.93;;;14.70;99.90;;;;;;5050249;28;20480;-84
2021/08/03 05:35:29;;;;;;;13.43;7.20;;;14.70;99.90;;;;;;5049966;28;20472;-84
2021/08/03 05:37:56;;;;;;;15.07;9.17;;;14.70;99.90;;;;;;5050843;28;20529;-85
2021/08/03 05:40:22;;;;;;;11.83;7.07;;;14.80;99.90;;;;;;5050189;28;20521;-84
2021/08/03 05:42:51;;;;;;;14.97;7.50;;;14.80;99.90;;;;;;5049643;28;20547;-84
2021/08/03 05:45:17;;;;;;;13.10;8.30;;;14.80;99.90;;;;;;5037134;28;20527;-83
2021/08/03 05:47:44;;;;;;;13.90;7.40;;;14.90;99.90;;;;;;5018952;28;20581;-83
2021/08/03 05:50:12;;;;;;;12.13;7.60;;;14.90;99.90;;;;;;5018688;28;20442;-83
2021/08/03 05:52:39;;;;;;;13.00;7.70;;;15.00;99.90;;;;;;5017228;28;20452;-83
2021/08/03 05:55:07;;;;;;;15.73;8.00;;;15.00;99.90;;;;;;5015506;28;20457;-84
2021/08/03 05:57:34;;;;;;;14.43;7.90;;;15.10;99.90;;;;;;5014992;28;20730;-83
2021/08/03 06:00:02;;;;;;;14.87;8.20;;;15.10;99.90;;;;;;5016056;28;20572;-83
2021/08/03 06:02:29;;;;;;;15.47;8.23;;;15.20;99.90;;;;;;5029275;28;20502;-84
2021/08/03 06:04:56;;;;;;;11.90;7.00;;;15.30;99.90;;;;;;5028937;28;20469;-84
2021/08/03 06:07:25;;;;;;;11.87;7.57;;;15.40;99.90;;;;;;5029415;28;20527;-83
2021/08/03 06:09:56;;;;;;;14.37;7.90;;;15.40;99.90;;;;;;5029460;28;20456;-83
2021/08/03 06:12:25;;;;;;;14.63;8.37;;;15.50;99.90;;;;;;5024267;28;20446;-84
2021/08/03 06:14:55;;;;;;;11.50;6.90;;;15.50;99.90;;;;;;5028962;28;20461;-84
2021/08/03 06:17:34;;;;;;;12.27;7.53;;;15.60;99.90;;;;;;5029052;28;20473;-84
2021/08/03 06:20:01;;;;;;;13.03;6.80;;;15.70;99.90;;;;;;5021866;28;20510;-84
2021/08/03 06:22:29;;;;;;;13.83;7.40;;;15.80;99.90;;;;;;5027248;28;20442;-84
2021/08/03 06:24:56;;;;;;;11.47;6.03;;;15.80;99.90;;;;;;5021268;28;20449;-83
2021/08/03 06:27:23;;;;;;;15.97;6.57;;;15.90;99.90;;;;;;5017609;28;20479;-83
2021/08/03 06:29:51;;;;;;;13.43;7.97;;;16.00;99.90;;;;;;5016919;28;20446;-83
2021/08/03 06:32:17;;;;;;;11.43;6.77;;;16.10;99.90;;;;;;5017353;28;20455;-83
2021/08/03 06:34:46;;;;;;;15.13;7.40;;;16.10;99.90;;;;;;5016667;28;20968;-83
2021/08/03 06:37:14;;;;;;;14.13;6.87;;;16.20;99.90;;;;;;5015997;28;20469;-84
2021/08/03 06:39:41;;;;;;;14.47;7.57;;;16.10;99.90;;;;;;5013655;28;20564;-83
2021/08/03 06:42:14;;;;;;;14.10;7.23;;;16.00;99.90;;;;;;5016989;28;20447;-84
2021/08/03 06:44:45;;;;;;;15.40;6.00;;;16.00;99.90;;;;;;5016024;28;20457;-84
2021/08/03 06:47:15;;;;;;;13.20;6.53;;;16.00;99.90;;;;;;5022494;28;20988;-84
2021/08/03 06:49:48;;;;;;;14.07;6.47;;;16.10;99.90;;;;;;5018236;28;20456;-85
2021/08/03 06:52:17;;;;;;;14.30;8.70;;;16.20;99.90;;;;;;5023085;28;20457;-84
2021/08/03 06:54:49;;;;;;;13.50;7.60;;;16.20;99.90;;;;;;5023531;28;20455;-83
2021/08/03 06:57:17;;;;;;;12.10;7.33;;;15.90;99.90;;;;;;5024157;28;20469;-84
2021/08/03 06:59:47;;;;;;;12.77;6.03;;;15.90;99.90;;;;;;5022114;28;20576;-84
2021/08/03 07:02:23;;;;;;;14.67;7.47;;;16.00;99.90;;;;;;5023491;28;20489;-85
2021/08/03 07:04:58;;;;;;;12.13;6.63;;;16.10;99.90;;;;;;5022388;28;20941;-85
2021/08/03 07:07:26;;;;;;;10.97;6.80;;;16.20;99.90;;;;;;5027225;28;20484;-85
2021/08/03 07:09:54;;;;;;;15.10;6.70;;;16.40;99.90;;;;;;5018445;28;20448;-84
2021/08/03 07:12:22;;;;;;;14.17;7.50;;;16.50;99.90;;;;;;5031064;28;20464;-84
2021/08/03 07:14:49;;;;;;;14.83;8.43;;;16.40;99.90;;;;;;5027754;28;20457;-84
2021/08/03 07:17:17;;;;;;;15.10;7.20;;;16.40;99.90;;;;;;5029213;28;20515;-84
2021/08/03 07:19:45;;;;;;;13.60;6.57;;;16.50;99.90;;;;;;5028578;28;20438;-85
2021/08/03 07:22:16;;;;;;;11.50;6.17;;;16.50;99.90;;;;;;5029831;28;20476;-84
2021/08/03 07:24:44;;;;;;;13.50;7.80;;;16.60;99.90;;;;;;5030474;28;20456;-85
2021/08/03 07:27:11;;;;;;;14.60;5.90;;;16.70;99.90;;;;;;5030027;28;20558;-84
2021/08/03 07:29:37;;;;;;;14.47;6.87;;;16.80;99.90;;;;;;5008944;28;20454;-85
2021/08/03 07:32:05;;;;;;;12.50;5.83;;;16.70;99.90;;;;;;5021935;28;20468;-85
2021/08/03 07:34:31;;;;;;;14.60;7.33;;;16.80;99.90;;;;;;5028427;28;20500;-84
2021/08/03 07:37:00;;;;;;;14.23;5.60;;;16.70;99.90;;;;;;5026667;28;20795;-84
2021/08/03 07:39:29;;;;;;;12.73;5.50;;;16.50;99.90;;;;;;5029356;28;20487;-85
2021/08/03 07:41:58;;;;;;;10.00;4.73;;;16.70;99.90;;;;;;5029513;28;20503;-85
2021/08/03 07:44:25;;;;;;;14.83;5.73;;;16.70;99.90;;;;;;5037834;28;20450;-85
2021/08/03 07:46:52;;;;;;;9.80;4.93;;;16.80;99.90;;;;;;5046076;28;20473;-85
2021/08/03 07:49:19;;;;;;;10.70;5.33;;;16.90;99.90;;;;;;5029455;28;20524;-84
2021/08/03 07:51:46;;;;;;;48.57;8.93;;;16.90;99.90;;;;;;5029232;28;20892;-85
2021/08/03 07:54:14;;;;;;;9.90;4.93;;;16.70;99.90;;;;;;5029053;28;21029;-85
2021/08/03 07:56:42;;;;;;;13.87;6.20;;;16.90;99.90;;;;;;5030107;28;21066;-84
2021/08/03 07:59:09;;;;;;;11.50;5.50;;;17.00;99.90;;;;;;5029256;28;20459;-84
2021/08/03 08:01:36;;;;;;;11.30;6.00;;;17.00;99.90;;;;;;5031436;28;20489;-84
2021/08/03 08:04:03;;;;;;;12.00;5.93;;;17.10;99.90;;;;;;5030655;28;20449;-85
2021/08/03 08:06:31;;;;;;;12.73;6.03;;;17.10;99.90;;;;;;5030207;28;20522;-85
2021/08/03 08:08:57;;;;;;;11.77;6.33;;;17.20;99.90;;;;;;5029590;28;20534;-84
2021/08/03 08:11:24;;;;;;;11.93;5.33;;;17.10;99.90;;;;;;5032726;28;20458;-85
2021/08/03 08:13:52;;;;;;;10.10;5.13;;;17.00;99.90;;;;;;5029860;28;20458;-85
2021/08/03 08:16:19;;;;;;;10.73;5.70;;;17.10;99.90;;;;;;5030169;28;20641;-85
2021/08/03 08:18:46;;;;;;;13.33;6.33;;;17.10;99.90;;;;;;5029928;28;20908;-85
2021/08/03 08:21:13;;;;;;;13.17;5.37;;;17.20;99.90;;;;;;5031758;28;20480;-85
2021/08/03 08:23:40;;;;;;;12.00;5.07;;;17.30;99.90;;;;;;5034801;28;20504;-86
2021/08/03 08:26:06;;;;;;;11.83;5.50;;;17.40;99.90;;;;;;5051026;28;20482;-86
2021/08/03 08:28:33;;;;;;;12.37;5.90;;;17.50;99.90;;;;;;5053915;28;20575;-86
2021/08/03 08:31:02;;;;;;;15.33;4.47;;;17.50;99.90;;;;;;5042623;28;20525;-85
2021/08/03 08:33:28;;;;;;;11.13;4.63;;;17.60;99.90;;;;;;5048627;28;20517;-86
2021/08/03 08:35:55;;;;;;;10.30;4.30;;;17.70;99.90;;;;;;5052679;28;20455;-85
2021/08/03 08:38:22;;;;;;;10.10;5.03;;;17.80;99.90;;;;;;5033736;28;20494;-86
2021/08/03 08:40:49;;;;;;;11.53;4.93;;;17.80;99.90;;;;;;5034181;28;20559;-85
2021/08/03 08:43:17;;;;;;;10.23;3.90;;;17.80;99.90;;;;;;5034836;28;20506;-85
2021/08/03 08:45:44;;;;;;;10.73;4.60;;;17.90;99.90;;;;;;5050649;28;20511;-85
2021/08/03 08:48:13;;;;;;;10.33;4.60;;;18.00;99.90;;;;;;5053651;28;20905;-85
2021/08/03 08:50:41;;;;;;;9.53;4.10;;;18.10;99.90;;;;;;5052297;28;20443;-85
2021/08/03 08:53:08;;;;;;;9.93;4.93;;;18.10;99.90;;;;;;5038739;28;20532;-85
2021/08/03 08:55:35;;;;;;;13.23;5.30;;;18.20;99.90;;;;;;5042994;28;20625;-85
2021/08/03 08:58:02;;;;;;;12.23;5.13;;;18.30;99.90;;;;;;5055592;28;20463;-85
2021/08/03 09:00:29;;;;;;;11.80;5.17;;;18.40;99.90;;;;;;5058468;28;20492;-85
2021/08/03 09:02:58;;;;;;;9.23;4.13;;;18.50;99.90;;;;;;5057970;28;20493;-84
2021/08/03 09:05:32;;;;;;;14.27;4.30;;;18.60;99.90;;;;;;5037089;28;20449;-84
2021/08/03 09:08:01;;;;;;;10.20;3.63;;;18.40;99.90;;;;;;5033055;28;20475;-84
2021/08/03 09:10:34;;;;;;;11.67;4.70;;;18.20;99.90;;;;;;5035034;28;20467;-84
2021/08/03 09:13:03;;;;;;;10.27;4.43;;;18.30;99.90;;;;;;5036827;28;20454;-84
2021/08/03 09:15:31;;;;;;;9.97;4.00;;;18.30;99.90;;;;;;5037640;28;20462;-84
2021/08/03 09:18:25;;;;;;;10.37;3.33;;;18.30;99.90;;;;;;5018887;28;20531;-84
2021/08/03 09:20:53;;;;;;;14.33;5.50;;;18.40;99.90;;;;;;5028562;28;20519;-85
2021/08/03 09:23:20;;;;;;;32.03;5.23;;;18.50;99.90;;;;;;5031178;28;20543;-85
2021/08/03 09:25:57;;;;;;;11.13;4.00;;;18.50;99.90;;;;;;5033049;28;20479;-86
2021/08/03 09:28:25;;;;;;;11.27;3.47;;;18.70;99.90;;;;;;5032029;28;20479;-85
2021/08/03 09:30:52;;;;;;;11.20;4.07;;;18.50;99.90;;;;;;5029840;28;20449;-85
2021/08/03 09:33:27;;;;;;;13.87;3.60;;;18.80;99.90;;;;;;5033037;28;20436;-85
2021/08/03 09:35:56;;;;;;;11.70;4.37;;;18.80;99.90;;;;;;5040675;28;20457;-86
2021/08/03 09:38:23;;;;;;;12.17;4.40;;;19.20;99.90;;;;;;5032542;28;20469;-86
2021/08/03 09:40:52;;;;;;;11.10;3.87;;;19.80;99.90;;;;;;5032960;28;20488;-85
2021/08/03 09:43:28;;;;;;;10.43;3.80;;;20.10;99.90;;;;;;5040784;28;20827;-85
2021/08/03 09:46:00;;;;;;;12.97;3.47;;;20.30;99.90;;;;;;5036656;28;20461;-86
2021/08/03 09:48:28;;;;;;;11.13;3.20;;;19.80;99.90;;;;;;5050952;28;20465;-86
2021/08/03 09:51:04;;;;;;;13.00;3.37;;;19.70;99.90;;;;;;5044816;28;20524;-85
2021/08/03 09:53:39;;;;;;;10.90;3.20;;;19.80;99.90;;;;;;5024001;28;20460;-86
2021/08/03 09:56:06;;;;;;;12.03;3.30;;;20.00;99.90;;;;;;5048788;28;20542;-86
2021/08/03 09:58:33;;;;;;;11.67;3.37;;;20.20;99.90;;;;;;5040100;28;20908;-86
2021/08/03 10:01:22;;;;;;;11.00;2.77;;;20.30;99.90;;;;;;5031391;28;20513;-86
2021/08/03 10:03:49;;;;;;;12.80;3.27;;;20.30;99.90;;;;;;5050849;28;20706;-86
2021/08/03 10:06:23;;;;;;;10.27;3.10;;;20.40;99.90;;;;;;5049290;28;20468;-86
2021/08/03 10:08:55;;;;;;;12.33;3.47;;;20.60;99.90;;;;;;5044820;28;20498;-87
2021/08/03 10:11:23;;;;;;;12.10;3.60;;;20.90;99.90;;;;;;5028239;28;20520;-86
2021/08/03 10:13:52;;;;;;;13.30;3.20;;;21.30;99.90;;;;;;5029576;28;20513;-86
2021/08/03 10:16:19;;;;;;;12.17;2.70;;;21.70;99.90;;;;;;5028515;28;20450;-86
2021/08/03 10:18:49;;;;;;;14.93;3.13;;;22.00;99.90;;;;;;5039125;28;20518;-86
2021/08/03 10:21:34;;;;;;;13.97;2.90;;;22.40;99.90;;;;;;5025350;28;20486;-87
2021/08/03 10:24:14;;;;;;;13.80;2.87;;;22.80;99.90;;;;;;5010167;28;20510;-86
2021/08/03 10:26:41;;;;;;;11.30;2.50;;;22.80;99.90;;;;;;5022969;28;20474;-87
2021/08/03 10:29:25;;;;;;;14.87;2.60;;;22.80;99.90;;;;;;5027504;28;20461;-86
2021/08/03 10:31:54;;;;;;;14.40;3.50;;;22.90;99.90;;;;;;5029140;28;20905;-86
2021/08/03 10:34:59;;;;;;;14.27;3.90;;;22.80;99.90;;;;;;5028554;28;20448;-86
2021/08/03 10:37:47;;;;;;;12.40;3.07;;;23.00;99.90;;;;;;5027496;28;20469;-86
2021/08/03 10:40:14;;;;;;;16.80;2.93;;;23.10;99.90;;;;;;5027608;28;20454;-86
2021/08/03 10:43:16;;;;;;;16.27;2.93;;;23.00;99.90;;;;;;5029857;28;20576;-86
2021/08/03 10:45:55;;;;;;;12.63;2.50;;;22.80;99.90;;;;;;5030907;28;20449;-86
2021/08/03 10:48:45;;;;;;;17.13;2.40;;;22.70;99.90;;;;;;5044209;28;20483;-85
2021/08/03 10:51:43;;;;;;;19.97;2.90;;;22.70;99.90;;;;;;5043288;28;20532;-86
2021/08/03 10:54:19;;;;;;;20.27;2.20;;;22.60;99.90;;;;;;5024720;28;20459;-85
2021/08/03 10:57:22;;;;;;;29.83;2.10;;;22.60;99.90;;;;;;5047926;28;20468;-86
2021/08/03 11:00:02;;;;;;;29.97;3.20;;;22.50;99.90;;;;;;5045417;28;20941;-87
2021/08/03 11:02:49;;;;;;;45.73;2.60;;;22.20;99.90;;;;;;5032552;28;20504;-86
2021/08/03 11:05:30;;;;;;;48.57;3.53;;;21.70;99.90;;;;;;5007086;28;20450;-87
2021/08/03 11:07:57;;;;;;;48.00;5.10;;;21.60;99.90;;;;;;5026673;28;20475;-86
2021/08/03 11:10:35;;;;;;;40.07;3.57;;;21.30;99.90;;;;;;5039042;28;20473;-86
2021/08/03 11:13:03;;;;;;;44.33;4.00;;;21.10;99.90;;;;;;5025271;28;20442;-86
2021/08/03 11:15:41;;;;;;;53.13;8.33;;;21.10;99.90;;;;;;5022960;28;20445;-86
2021/08/03 11:18:18;;;;;;;47.80;4.47;;;20.90;99.90;;;;;;5030593;28;20466;-86
2021/08/03 11:21:13;;;;;;;65.97;25.87;;;20.80;99.90;;;;;;5033483;28;20451;-87
2021/08/03 11:24:04;;;;;;;47.90;3.10;;;20.50;99.90;;;;;;5040847;28;20957;-86
2021/08/03 11:26:34;;;;;;;52.23;6.10;;;20.50;99.90;;;;;;5045499;28;20441;-86
2021/08/03 11:29:06;;;;;;;50.50;4.70;;;20.40;99.90;;;;;;5045764;28;20445;-86
2021/08/03 11:31:48;;;;;;;48.57;2.90;;;20.30;99.90;;;;;;5052068;28;20433;-86
2021/08/03 11:34:17;;;;;;;45.07;4.23;;;20.30;99.90;;;;;;5032822;28;20452;-87
2021/08/03 11:37:08;;;;;;;54.17;7.63;;;20.10;99.90;;;;;;5038507;28;20473;-86
2021/08/03 11:39:37;;;;;;;48.97;3.90;;;19.90;99.90;;;;;;5042925;28;20454;-87
2021/08/03 11:42:07;;;;;;;38.80;3.47;;;19.90;99.90;;;;;;5055832;28;20465;-87
2021/08/03 11:44:34;;;;;;;45.90;3.57;;;19.80;99.90;;;;;;5057239;28;20439;-86
2021/08/03 11:47:03;;;;;;;47.87;3.90;;;19.70;99.90;;;;;;5041233;28;20826;-86
2021/08/03 11:49:43;;;;;;;47.60;3.33;;;19.70;99.90;;;;;;5022230;28;20456;-85
2021/08/03 11:52:13;;;;;;;46.80;3.17;;;19.70;99.90;;;;;;5014781;28;20468;-85
2021/08/03 11:54:41;;;;;;;41.60;3.10;;;19.70;99.90;;;;;;5019005;28;20464;-85
2021/08/03 11:57:33;;;;;;;41.47;3.03;;;19.60;99.90;;;;;;5017653;28;20976;-86
2021/08/03 12:00:11;;;;;;;35.40;3.03;;;19.60;99.90;;;;;;5019993;28;20496;-85
2021/08/03 12:02:39;;;;;;;36.47;3.27;;;19.50;99.90;;;;;;5033064;28;20950;-88
2021/08/03 12:05:17;;;;;;;27.33;2.33;;;19.40;99.90;;;;;;5026211;28;20544;-87
2021/08/03 12:07:50;;;;;;;23.70;3.10;;;19.40;99.90;;;;;;5022898;28;20547;-88
2021/08/03 12:10:18;;;;;;;32.10;3.87;;;19.40;99.90;;;;;;5015381;28;20434;-84
2021/08/03 12:12:47;;;;;;;36.20;3.80;;;19.10;99.90;;;;;;5030632;28;20448;-85
2021/08/03 12:15:17;;;;;;;22.80;3.40;;;18.80;99.90;;;;;;5025028;28;20511;-85
2021/08/03 12:17:45;;;;;;;21.60;4.30;;;19.00;99.90;;;;;;5030154;28;20487;-85
2021/08/03 12:20:28;;;;;;;18.90;3.77;;;19.00;99.90;;;;;;5028410;28;20444;-84
2021/08/03 12:23:07;;;;;;;17.50;3.30;;;19.10;99.90;;;;;;5027875;28;20480;-85
2021/08/03 12:25:41;;;;;;;15.90;3.00;;;19.10;99.90;;;;;;5012261;28;20449;-84
2021/08/03 12:28:12;;;;;;;34.67;4.50;;;19.20;99.90;;;;;;5018576;28;20499;-86
2021/08/03 12:30:42;;;;;;;27.57;4.23;;;19.10;99.90;;;;;;5030774;28;20459;-87
2021/08/03 12:33:28;;;;;;;25.27;3.17;;;19.10;99.90;;;;;;5022590;28;20442;-87
2021/08/03 12:36:05;;;;;;;19.20;3.80;;;19.00;99.90;;;;;;5032904;28;20474;-85
2021/08/03 12:38:32;;;;;;;16.80;3.97;;;19.10;99.90;;;;;;5021529;28;20495;-86
2021/08/03 12:40:59;;;;;;;13.60;3.63;;;18.90;99.90;;;;;;5027176;28;20523;-87
2021/08/03 12:43:40;;;;;;;15.43;3.83;;;18.90;99.90;;;;;;5023845;28;20488;-88
2021/08/03 12:46:07;;;;;;;16.60;4.27;;;18.90;99.90;;;;;;5023783;28;20527;-87
2021/08/03 12:48:37;;;;;;;15.20;4.10;;;18.80;99.90;;;;;;5023506;28;20476;-87
2021/08/03 12:51:05;;;;;;;14.60;3.50;;;18.80;99.90;;;;;;5026350;28;20837;-86
2021/08/03 12:53:33;;;;;;;14.07;3.70;;;18.80;99.90;;;;;;5022669;28;20546;-89
2021/08/03 12:56:17;;;;;;;14.53;3.97;;;18.80;99.90;;;;;;5025428;28;20455;-87